Galvin, WA

11:21 PM PDT on May 22, 2015 (GMT -0700)
GRAND MOUND KF7ZAO | | Change Station
CLOSE
Current Station
Personal Weather Station
Location: Centralia, WA
Elevation: 157 ft
Nearby Weather Stations

Elev 157 ft 46.77 °N, 123.01 °W | Updated 30 seconds ago

Overcast
Overcast
55.6 °F
Feels Like 55.6 °F
N
0.0
Wind Variable Wind from West
Gusts 0.0 mph

Today
High -- | Low -- °F
--% Chance of Precip.
Yesterday
High -- | Low -- °F
Precip. -- in
5:30 AM 8:48 PM
Waxing Crescent, 27% visible
Pressure 30.09 in
Visibility 10.0 miles
Clouds Mostly Cloudy 2200 ft
Mostly Cloudy 3700 ft
Overcast 7500 ft
Dew Point 48 °F
Humidity 76%
Rainfall 0.00 in
Snow Depth Not available.
UV 0 out of 12
Pollen 7.10 out of 12
Air Quality Not available.
Flu Activity Sporadic
METAR KCLS 230615Z AUTO VRB04KT 10SM BKN022 BKN037 OVC075 13/10 A3009 RMK AO2

More Conditions Fewer Conditions

Pressure 30.09 in
Visibility 10.0 miles
Clouds Mostly Cloudy 2200 ft
Mostly Cloudy 3700 ft
Overcast 7500 ft
Dew Point 48 °F
Humidity 76%
Rainfall 0.00 in
Snow Depth Not available.
UV 0 out of 12
Pollen 7.10 out of 12
Air Quality Not available.
Flu Activity Sporadic
METAR KCLS 230615Z AUTO VRB04KT 10SM BKN022 BKN037 OVC075 13/10 A3009 RMK AO2

More Conditions Fewer Conditions

10-Day Weather Forecast

Almanac

Astronomy

May. 22, 2015 Rise Set
Actual Time
Civil Twilight
Nautical Twilight
Astronomical Twilight
Moon
Length of Visible Light
Length of Day
Tomorrow will be .
, % of the Moon is Illuminated

Today's Extremes

State Highs State Lows

Community

WunderPhotos

Upload Photos

1,823,394 photos uploaded!

WunderBlogs® & News

Nearby

Air Quality

  Air Quality AQ Index Pollutant
Not available.

Snow Depth

Station Depth Elevation

Earthquake Activity

City Distance Mag. Time & Date
Minimum magnitude displayed is 2.5.

Coastal Water Temperatures

Place Temperature

Stations

Nearby Weather Stations

Station Location Temp. Windchill Dew Point Humidity Wind Precip. Elev Updated Type